Time;durP1;ratioP1;P1;durP2;ratioP2;P2;SDS_P1;SDS_P2;PMS_P1;PMS_P2;Temp;Humidity;BMP_temperature;BMP_pressure;BME280_temperature;BME280_humidity;BME280_pressure;Samples;Min_cycle;Max_cycle;Signal;HPM_P1;HPM_P2
2021/06/26 00:01:36;;;;;;;9.88;3.20;;;;;;;;;;5124392;27;20026;-84
2021/06/26 00:04:02;;;;;;;5.82;2.88;;;;;;;;;;5124286;27;20374;-84
2021/06/26 00:06:29;;;;;;;6.75;3.08;;;;;;;;;;5123893;27;20444;-83
2021/06/26 00:08:54;;;;;;;10.30;3.28;;;;;;;;;;5133478;27;20030;-83
2021/06/26 00:11:22;;;;;;;5.68;3.10;;;;;;;;;;5113973;27;20046;-83
2021/06/26 00:13:48;;;;;;;10.82;3.58;;;;;;;;;;5133827;27;20027;-83
2021/06/26 00:16:14;;;;;;;6.45;3.25;;;;;;;;;;5119224;27;20020;-83
2021/06/26 00:18:40;;;;;;;7.57;3.85;;;;;;;;;;5109974;27;20043;-82
2021/06/26 00:21:06;;;;;;;8.43;3.80;;;;;;;;;;5111661;27;20818;-83
2021/06/26 00:23:32;;;;;;;8.07;3.60;;;;;;;;;;5111133;28;20107;-84
2021/06/26 00:25:58;;;;;;;12.55;4.03;;;;;;;;;;5119658;27;20043;-83
2021/06/26 00:28:24;;;;;;;9.82;3.83;;;;;;;;;;5109653;27;20099;-83
2021/06/26 00:30:50;;;;;;;7.72;3.55;;;;;;;;;;5104277;27;20023;-83
2021/06/26 00:33:16;;;;;;;10.70;3.95;;;;;;;;;;5118185;27;20023;-83
2021/06/26 00:35:42;;;;;;;11.50;4.43;;;;;;;;;;5113557;27;20023;-85
2021/06/26 00:38:08;;;;;;;12.88;4.40;;;;;;;;;;5097290;27;20027;-83
2021/06/26 00:40:34;;;;;;;16.83;4.93;;;;;;;;;;5112592;27;20043;-82
2021/06/26 00:43:00;;;;;;;7.55;3.85;;;;;;;;;;5152590;27;20055;-83
2021/06/26 00:45:26;;;;;;;9.27;4.00;;;;;;;;;;5115801;27;20035;-83
2021/06/26 00:47:52;;;;;;;9.18;4.18;;;;;;;;;;5112025;27;20020;-84
2021/06/26 00:50:23;;;;;;;6.75;3.78;;;;;;;;;;5121423;27;20039;-83
2021/06/26 00:52:49;;;;;;;6.00;3.78;;;;;;;;;;5110541;27;20048;-83
2021/06/26 00:55:16;;;;;;;10.88;3.97;;;;;;;;;;5125370;27;20418;-83
2021/06/26 00:57:47;;;;;;;6.45;3.70;;;;;;;;;;5113043;27;20036;-81
2021/06/26 01:00:14;;;;;;;8.90;3.75;;;;;;;;;;5104383;27;20058;-83
2021/06/26 01:02:40;;;;;;;6.75;3.58;;;;;;;;;;5105073;28;20019;-83
2021/06/26 01:05:06;;;;;;;7.03;3.80;;;;;;;;;;5112080;27;20444;-83
2021/06/26 01:07:32;;;;;;;10.55;3.63;;;;;;;;;;5118185;27;20542;-84
2021/06/26 01:09:58;;;;;;;7.20;3.97;;;;;;;;;;5113950;27;20055;-81
2021/06/26 01:12:24;;;;;;;9.25;4.68;;;;;;;;;;5110477;28;20470;-82
2021/06/26 01:14:50;;;;;;;6.43;4.20;;;;;;;;;;5117422;27;20035;-83
2021/06/26 01:17:17;;;;;;;11.27;3.93;;;;;;;;;;5081046;28;20415;-83
2021/06/26 01:19:43;;;;;;;9.30;4.20;;;;;;;;;;5107716;28;20293;-84
2021/06/26 01:22:09;;;;;;;8.15;4.35;;;;;;;;;;5109858;27;20637;-83
2021/06/26 01:24:35;;;;;;;9.23;4.80;;;;;;;;;;5101134;28;20478;-83
2021/06/26 01:27:02;;;;;;;9.87;4.50;;;;;;;;;;5127158;27;20030;-83
2021/06/26 01:29:29;;;;;;;8.90;4.05;;;;;;;;;;5114856;27;20272;-82
2021/06/26 01:31:55;;;;;;;;;;;;;;;;;;5110152;28;20052;-83
2021/06/26 01:34:21;;;;;;;11.35;5.50;;;;;;;;;;5089848;28;19911;-82
2021/06/26 01:36:47;;;;;;;10.40;5.30;;;;;;;;;;5116928;27;20150;-83
2021/06/26 01:39:13;;;;;;;12.88;5.32;;;;;;;;;;5108227;27;20471;-84
2021/06/26 01:41:40;;;;;;;13.35;4.78;;;;;;;;;;5115545;27;20024;-83
2021/06/26 01:44:06;;;;;;;14.57;4.80;;;;;;;;;;5123916;27;20058;-83
2021/06/26 01:46:33;;;;;;;13.43;5.07;;;;;;;;;;5129943;27;20039;-82
2021/06/26 01:49:25;;;;;;;11.95;5.15;;;;;;;;;;5124228;27;20645;-84
2021/06/26 01:51:51;;;;;;;10.45;4.40;;;;;;;;;;5098422;27;20535;-82
2021/06/26 01:54:17;;;;;;;10.07;4.97;;;;;;;;;;5111043;27;20123;-83
2021/06/26 01:56:44;;;;;;;10.85;5.20;;;;;;;;;;5119286;27;20035;-83
2021/06/26 01:59:10;;;;;;;12.70;4.97;;;;;;;;;;5121367;27;20474;-83
2021/06/26 02:01:36;;;;;;;19.02;6.05;;;;;;;;;;5110705;27;20035;-82
2021/06/26 02:04:02;;;;;;;13.45;5.82;;;;;;;;;;5111158;27;20086;-83
2021/06/26 02:06:29;;;;;;;17.90;6.00;;;;;;;;;;5117876;27;20381;-82
2021/06/26 02:08:55;;;;;;;18.98;5.80;;;;;;;;;;5109055;27;20032;-82
2021/06/26 02:11:21;;;;;;;14.70;6.03;;;;;;;;;;5126914;27;20056;-84
2021/06/26 02:13:47;;;;;;;13.57;5.30;;;;;;;;;;5113425;27;20951;-83
2021/06/26 02:16:13;;;;;;;13.32;6.10;;;;;;;;;;5113144;27;20090;-83
2021/06/26 02:18:39;;;;;;;8.65;5.10;;;;;;;;;;5109036;27;20071;-84
2021/06/26 02:21:06;;;;;;;12.32;5.65;;;;;;;;;;5105429;28;20031;-80
2021/06/26 02:23:32;;;;;;;11.60;5.40;;;;;;;;;;5132642;27;20125;-83
2021/06/26 02:25:58;;;;;;;8.10;4.97;;;;;;;;;;5110823;28;20497;-82
2021/06/26 02:28:24;;;;;;;11.30;4.97;;;;;;;;;;5108175;28;20043;-82
2021/06/26 02:30:50;;;;;;;10.90;5.30;;;;;;;;;;5094849;28;20466;-83
2021/06/26 02:33:16;;;;;;;9.65;5.28;;;;;;;;;;5113707;27;20090;-83
2021/06/26 02:35:42;;;;;;;13.57;5.38;;;;;;;;;;5105186;27;20031;-82
2021/06/26 02:38:08;;;;;;;18.10;6.40;;;;;;;;;;5118522;27;20096;-82
2021/06/26 02:40:34;;;;;;;16.27;6.90;;;;;;;;;;5102186;28;20040;-83
2021/06/26 02:43:00;;;;;;;18.92;6.53;;;;;;;;;;5111429;27;20367;-82
2021/06/26 02:45:26;;;;;;;19.98;7.40;;;;;;;;;;5110159;28;20107;-83
2021/06/26 02:47:52;;;;;;;20.48;6.57;;;;;;;;;;5100823;28;20492;-83
2021/06/26 02:50:18;;;;;;;14.20;6.68;;;;;;;;;;5119015;27;20039;-83
2021/06/26 02:52:44;;;;;;;13.00;6.32;;;;;;;;;;5110148;28;20100;-82
2021/06/26 02:55:11;;;;;;;17.40;6.53;;;;;;;;;;5112318;27;20130;-82
2021/06/26 02:57:37;;;;;;;12.93;6.00;;;;;;;;;;5107235;28;20035;-83
2021/06/26 03:00:07;;;;;;;15.77;6.32;;;;;;;;;;5115630;28;20075;-83
2021/06/26 03:02:33;;;;;;;16.35;5.85;;;;;;;;;;5106523;28;20016;-82
2021/06/26 03:04:59;;;;;;;15.25;6.20;;;;;;;;;;5117135;27;20061;-83
2021/06/26 03:07:25;;;;;;;10.73;5.32;;;;;;;;;;5121691;27;20103;-82
2021/06/26 03:09:51;;;;;;;12.45;5.72;;;;;;;;;;5121822;27;20509;-81
2021/06/26 03:12:17;;;;;;;21.30;5.70;;;;;;;;;;5110047;27;20039;-83
2021/06/26 03:14:43;;;;;;;16.50;5.63;;;;;;;;;;5124743;27;20027;-83
2021/06/26 03:17:09;;;;;;;11.90;5.32;;;;;;;;;;5113017;27;20616;-82
2021/06/26 03:19:35;;;;;;;10.43;5.00;;;;;;;;;;5118955;27;20031;-83
2021/06/26 03:22:01;;;;;;;10.70;5.03;;;;;;;;;;5116928;27;20494;-83
2021/06/26 03:24:28;;;;;;;11.25;5.05;;;;;;;;;;5095882;28;20039;-82
2021/06/26 03:26:54;;;;;;;11.70;4.33;;;;;;;;;;5111546;27;20027;-82
2021/06/26 03:29:20;;;;;;;11.20;5.13;;;;;;;;;;5113198;27;20027;-84
2021/06/26 03:31:46;;;;;;;11.43;4.30;;;;;;;;;;5106619;27;20044;-82
2021/06/26 03:34:13;;;;;;;8.32;4.40;;;;;;;;;;5130348;27;20038;-83
2021/06/26 03:36:39;;;;;;;8.30;4.60;;;;;;;;;;5109336;27;20024;-81
2021/06/26 03:39:05;;;;;;;8.68;5.00;;;;;;;;;;5121278;27;20118;-83
2021/06/26 03:41:31;;;;;;;10.15;5.38;;;;;;;;;;5106711;27;20035;-81
2021/06/26 03:43:58;;;;;;;12.23;4.93;;;;;;;;;;5094228;28;20035;-81
2021/06/26 03:46:24;;;;;;;;;;;;;;;;;;5112667;27;20395;-83
2021/06/26 03:48:50;;;;;;;9.48;4.68;;;;;;;;;;5113639;27;19907;-84
2021/06/26 03:51:16;;;;;;;9.77;4.88;;;;;;;;;;5123858;27;20088;-82
2021/06/26 03:53:42;;;;;;;10.27;5.85;;;;;;;;;;5119037;27;20117;-82
2021/06/26 03:56:09;;;;;;;11.77;5.05;;;;;;;;;;5104750;27;20023;-82
2021/06/26 03:58:35;;;;;;;14.65;5.90;;;;;;;;;;5121282;27;20031;-83
2021/06/26 04:01:01;;;;;;;8.75;4.65;;;;;;;;;;5111152;27;20535;-82
2021/06/26 04:03:27;;;;;;;12.32;5.40;;;;;;;;;;5114728;27;20047;-82
2021/06/26 04:05:53;;;;;;;11.60;5.30;;;;;;;;;;5133160;27;20023;-83
2021/06/26 04:08:19;;;;;;;10.63;4.85;;;;;;;;;;5120747;27;20031;-82
2021/06/26 04:10:45;;;;;;;9.73;4.72;;;;;;;;;;5112398;28;20028;-82
2021/06/26 04:13:11;;;;;;;10.13;5.00;;;;;;;;;;5111932;27;20100;-82
2021/06/26 04:15:37;;;;;;;11.98;4.47;;;;;;;;;;5087525;27;20557;-83
2021/06/26 04:18:03;;;;;;;10.90;3.97;;;;;;;;;;5117312;27;20520;-83
2021/06/26 04:20:29;;;;;;;6.10;3.65;;;;;;;;;;5120544;27;20035;-82
2021/06/26 04:22:55;;;;;;;9.20;4.22;;;;;;;;;;5121274;27;20032;-82
2021/06/26 04:25:22;;;;;;;14.30;4.88;;;;;;;;;;5125954;27;20540;-83
2021/06/26 04:27:48;;;;;;;11.80;5.68;;;;;;;;;;5113138;28;20027;-82
2021/06/26 04:30:14;;;;;;;8.88;4.80;;;;;;;;;;5116450;27;20081;-81
2021/06/26 04:32:40;;;;;;;10.23;5.03;;;;;;;;;;5107824;28;20020;-82
2021/06/26 04:35:08;;;;;;;8.15;4.47;;;;;;;;;;5103339;27;20063;-82
2021/06/26 04:37:34;;;;;;;7.32;3.88;;;;;;;;;;5113258;27;20545;-82
2021/06/26 04:40:01;;;;;;;4.65;3.42;;;;;;;;;;5123521;27;20534;-84
2021/06/26 04:42:27;;;;;;;3.30;2.83;;;;;;;;;;5127024;27;20072;-81
2021/06/26 04:44:53;;;;;;;4.95;2.83;;;;;;;;;;5107653;27;20077;-82
2021/06/26 04:47:19;;;;;;;3.80;2.97;;;;;;;;;;5111622;27;20039;-81
2021/06/26 04:49:45;;;;;;;6.63;2.75;;;;;;;;;;5109668;28;20092;-81
2021/06/26 04:52:11;;;;;;;3.95;2.90;;;;;;;;;;5116108;27;20058;-82
2021/06/26 04:54:37;;;;;;;4.40;2.92;;;;;;;;;;5113298;27;20048;-82
2021/06/26 04:57:03;;;;;;;4.55;2.65;;;;;;;;;;5114559;27;20050;-81
2021/06/26 04:59:29;;;;;;;6.32;2.72;;;;;;;;;;5118919;27;20058;-82
2021/06/26 05:01:55;;;;;;;5.15;2.80;;;;;;;;;;5106234;28;20052;-82
2021/06/26 05:04:22;;;;;;;4.72;2.97;;;;;;;;;;5113091;27;20070;-81
2021/06/26 05:06:48;;;;;;;3.08;2.60;;;;;;;;;;5101227;28;20089;-81
2021/06/26 05:09:14;;;;;;;8.02;2.72;;;;;;;;;;5112837;27;20038;-83
2021/06/26 05:11:40;;;;;;;3.28;2.60;;;;;;;;;;5094089;27;20114;-83
2021/06/26 05:14:06;;;;;;;6.70;2.80;;;;;;;;;;5112577;27;20038;-82
2021/06/26 05:16:32;;;;;;;3.83;2.83;;;;;;;;;;5117108;27;20024;-80
2021/06/26 05:18:58;;;;;;;3.80;2.90;;;;;;;;;;5123468;27;20505;-83
2021/06/26 05:21:25;;;;;;;4.45;2.63;;;;;;;;;;5122030;27;20034;-81
2021/06/26 05:23:51;;;;;;;7.40;2.90;;;;;;;;;;5112128;27;20039;-83
2021/06/26 05:26:17;;;;;;;3.85;2.90;;;;;;;;;;5114053;27;20055;-82
2021/06/26 05:28:43;;;;;;;6.63;2.88;;;;;;;;;;5107863;27;20473;-80
2021/06/26 05:31:09;;;;;;;2.50;2.30;;;;;;;;;;5092472;28;20031;-81
2021/06/26 05:33:36;;;;;;;4.75;2.60;;;;;;;;;;5110104;27;20020;-81
2021/06/26 05:36:02;;;;;;;3.80;2.50;;;;;;;;;;5098025;28;20107;-81
2021/06/26 05:38:28;;;;;;;5.38;2.83;;;;;;;;;;5119454;27;20043;-80
2021/06/26 05:40:54;;;;;;;4.13;2.80;;;;;;;;;;5111378;27;20036;-81
2021/06/26 05:43:20;;;;;;;3.45;2.47;;;;;;;;;;5109875;27;20796;-83
2021/06/26 05:45:46;;;;;;;4.25;2.70;;;;;;;;;;5111714;27;20039;-84
2021/06/26 05:48:12;;;;;;;2.83;2.42;;;;;;;;;;5123114;27;20027;-80
2021/06/26 05:50:38;;;;;;;4.38;3.22;;;;;;;;;;5111598;27;20035;-81
2021/06/26 05:53:04;;;;;;;4.55;2.47;;;;;;;;;;5109655;28;20039;-83
2021/06/26 05:55:30;;;;;;;3.05;2.70;;;;;;;;;;5119656;27;20027;-82
2021/06/26 05:57:59;;;;;;;4.47;2.97;;;;;;;;;;5092619;28;20028;-82
2021/06/26 06:00:27;;;;;;;4.38;2.72;;;;;;;;;;5112359;27;20073;-77
2021/06/26 06:02:53;;;;;;;7.03;3.33;;;;;;;;;;5109427;27;20099;-74
2021/06/26 06:05:19;;;;;;;5.10;2.78;;;;;;;;;;5107995;28;20115;-76
2021/06/26 06:07:46;;;;;;;6.03;2.60;;;;;;;;;;5110108;28;20072;-77
2021/06/26 06:10:13;;;;;;;3.40;2.60;;;;;;;;;;5109823;28;20032;-76
2021/06/26 06:12:39;;;;;;;4.60;2.80;;;;;;;;;;5110860;27;20020;-73
2021/06/26 06:15:09;;;;;;;4.10;2.97;;;;;;;;;;5111669;27;20024;-74
2021/06/26 06:17:35;;;;;;;2.60;2.40;;;;;;;;;;5111451;27;20031;-74
2021/06/26 06:20:04;;;;;;;4.25;2.42;;;;;;;;;;5108581;28;20130;-75
2021/06/26 06:22:31;;;;;;;7.10;3.22;;;;;;;;;;5111733;27;20121;-77
2021/06/26 06:24:57;;;;;;;4.95;2.80;;;;;;;;;;5105448;27;20031;-77
2021/06/26 06:27:23;;;;;;;4.68;2.60;;;;;;;;;;5109691;27;20024;-75
2021/06/26 06:29:49;;;;;;;4.72;3.20;;;;;;;;;;5114104;27;20019;-76
2021/06/26 06:32:15;;;;;;;3.42;2.63;;;;;;;;;;5110377;27;20028;-76
2021/06/26 06:34:41;;;;;;;4.50;2.85;;;;;;;;;;5114471;27;20031;-75
2021/06/26 06:37:07;;;;;;;4.35;2.70;;;;;;;;;;5113823;27;20031;-76
2021/06/26 06:39:34;;;;;;;6.00;3.08;;;;;;;;;;5110743;27;20096;-75
2021/06/26 06:42:01;;;;;;;10.80;3.13;;;;;;;;;;5099238;27;20089;-77
2021/06/26 06:44:27;;;;;;;4.72;3.33;;;;;;;;;;5123176;27;20812;-77
2021/06/26 06:46:53;;;;;;;3.63;2.72;;;;;;;;;;5119300;27;20111;-76
2021/06/26 06:49:19;;;;;;;9.70;2.72;;;;;;;;;;5110214;28;20019;-74
2021/06/26 06:51:45;;;;;;;2.70;2.50;;;;;;;;;;5117511;27;20062;-74
2021/06/26 06:54:11;;;;;;;4.13;2.80;;;;;;;;;;5114428;27;20046;-76
2021/06/26 06:56:37;;;;;;;6.00;2.92;;;;;;;;;;5097382;28;20756;-77
2021/06/26 06:59:03;;;;;;;9.50;2.80;;;;;;;;;;5126997;27;20262;-74
2021/06/26 07:01:29;;;;;;;3.70;2.80;;;;;;;;;;5108499;28;20031;-76
2021/06/26 07:03:55;;;;;;;4.47;2.53;;;;;;;;;;5110936;28;20024;-76
2021/06/26 07:06:21;;;;;;;6.95;2.58;;;;;;;;;;5126578;28;20428;-76
2021/06/26 07:08:47;;;;;;;5.20;2.90;;;;;;;;;;5110725;28;20035;-76
2021/06/26 07:11:13;;;;;;;9.35;2.90;;;;;;;;;;5101034;28;20035;-78
2021/06/26 07:13:39;;;;;;;6.78;2.75;;;;;;;;;;5118568;28;20039;-77
2021/06/26 07:16:05;;;;;;;5.93;3.00;;;;;;;;;;5112288;28;20060;-77
2021/06/26 07:18:31;;;;;;;8.10;2.70;;;;;;;;;;5129880;28;20023;-77
2021/06/26 07:20:57;;;;;;;5.85;2.90;;;;;;;;;;5093124;28;20481;-76
2021/06/26 07:23:23;;;;;;;4.28;2.70;;;;;;;;;;5116873;28;20092;-76
2021/06/26 07:25:49;;;;;;;4.07;2.75;;;;;;;;;;5111127;28;20378;-76
2021/06/26 07:28:15;;;;;;;4.35;2.72;;;;;;;;;;5118671;28;20060;-77
2021/06/26 07:30:41;;;;;;;3.83;2.65;;;;;;;;;;5110775;28;20020;-77
2021/06/26 07:33:07;;;;;;;8.70;3.00;;;;;;;;;;5125684;28;20031;-76
2021/06/26 07:35:33;;;;;;;7.70;2.95;;;;;;;;;;5116147;28;20076;-76
2021/06/26 07:37:59;;;;;;;4.45;2.50;;;;;;;;;;5129253;28;20110;-77
2021/06/26 07:40:27;;;;;;;3.05;2.72;;;;;;;;;;5125601;28;20081;-76
2021/06/26 07:42:53;;;;;;;5.00;2.92;;;;;;;;;;5109499;28;20015;-77
2021/06/26 07:45:19;;;;;;;4.90;2.77;;;;;;;;;;5111246;28;20048;-77
2021/06/26 07:47:45;;;;;;;5.40;2.72;;;;;;;;;;5103572;28;20266;-77
2021/06/26 07:50:11;;;;;;;4.70;3.15;;;;;;;;;;5115914;27;20023;-78
2021/06/26 07:52:38;;;;;;;4.75;3.10;;;;;;;;;;5086951;28;20176;-77
2021/06/26 07:55:04;;;;;;;4.20;3.03;;;;;;;;;;5113122;27;20051;-77
2021/06/26 07:57:30;;;;;;;6.38;3.10;;;;;;;;;;5116285;27;20023;-77
2021/06/26 07:59:56;;;;;;;6.60;3.00;;;;;;;;;;5126198;27;20165;-77
2021/06/26 08:02:23;;;;;;;7.85;3.13;;;;;;;;;;5118163;27;20028;-78
2021/06/26 08:04:49;;;;;;;4.47;2.75;;;;;;;;;;5119950;27;20113;-77
2021/06/26 08:07:15;;;;;;;5.95;3.15;;;;;;;;;;5113419;28;20031;-77
2021/06/26 08:09:41;;;;;;;7.65;3.25;;;;;;;;;;5113918;27;20516;-76
2021/06/26 08:12:07;;;;;;;6.13;3.10;;;;;;;;;;5116718;27;20027;-77
2021/06/26 08:14:33;;;;;;;5.13;2.90;;;;;;;;;;5115171;27;20023;-77
2021/06/26 08:16:59;;;;;;;6.05;3.50;;;;;;;;;;5124273;27;20051;-77
2021/06/26 08:19:25;;;;;;;6.18;3.10;;;;;;;;;;5103327;28;20685;-77
2021/06/26 08:21:51;;;;;;;5.25;2.88;;;;;;;;;;5091956;27;20049;-78
2021/06/26 08:24:17;;;;;;;7.03;2.80;;;;;;;;;;5124968;27;20023;-77
2021/06/26 08:26:43;;;;;;;5.43;2.63;;;;;;;;;;5110685;27;20096;-75
2021/06/26 08:29:09;;;;;;;5.85;2.72;;;;;;;;;;5109491;28;20073;-75
2021/06/26 08:31:35;;;;;;;5.75;2.85;;;;;;;;;;5095419;27;20040;-77
2021/06/26 08:34:01;;;;;;;8.98;3.63;;;;;;;;;;5133980;27;20019;-77
2021/06/26 08:36:27;;;;;;;6.20;3.00;;;;;;;;;;5124030;27;20048;-77
2021/06/26 08:38:53;;;;;;;6.13;2.78;;;;;;;;;;5098907;27;20541;-77
2021/06/26 08:41:20;;;;;;;6.80;3.03;;;;;;;;;;5117175;27;20067;-77
2021/06/26 08:43:46;;;;;;;12.55;2.92;;;;;;;;;;5115458;27;20023;-78
2021/06/26 08:46:12;;;;;;;11.90;3.10;;;;;;;;;;5132813;27;20046;-78
2021/06/26 08:48:39;;;;;;;6.13;3.35;;;;;;;;;;5114271;27;20492;-78
2021/06/26 08:51:05;;;;;;;5.25;3.10;;;;;;;;;;5107501;27;20027;-78
2021/06/26 08:53:31;;;;;;;4.32;2.80;;;;;;;;;;5131674;27;20401;-78
2021/06/26 08:55:57;;;;;;;8.38;3.40;;;;;;;;;;5124606;27;20027;-78
2021/06/26 08:58:23;;;;;;;8.90;3.20;;;;;;;;;;5116819;27;20193;-80
2021/06/26 09:00:49;;;;;;;7.35;3.40;;;;;;;;;;5120253;27;20035;-77
2021/06/26 09:03:16;;;;;;;6.00;3.67;;;;;;;;;;5112391;28;20069;-78
2021/06/26 09:05:43;;;;;;;6.45;3.25;;;;;;;;;;5113035;28;20034;-78
2021/06/26 09:08:09;;;;;;;;;;;;;;;;;;5112284;28;20497;-79
2021/06/26 09:10:36;;;;;;;7.37;3.70;;;;;;;;;;5112326;27;19903;-78
2021/06/26 09:13:17;;;;;;;5.57;3.87;;;;;;;;;;5121422;27;20751;-78
2021/06/26 09:15:44;;;;;;;7.40;3.60;;;;;;;;;;5114728;27;20024;-77
2021/06/26 09:18:11;;;;;;;7.15;3.83;;;;;;;;;;5117709;27;20152;-79
2021/06/26 09:20:40;;;;;;;9.05;3.47;;;;;;;;;;5113484;27;20070;-80
2021/06/26 09:23:15;;;;;;;6.03;3.15;;;;;;;;;;5115826;27;20023;-79
2021/06/26 09:25:41;;;;;;;8.43;3.65;;;;;;;;;;5112168;28;20023;-79
2021/06/26 09:28:09;;;;;;;5.78;3.63;;;;;;;;;;5111250;28;20050;-77
2021/06/26 09:30:44;;;;;;;6.75;3.22;;;;;;;;;;5110521;28;20016;-77
2021/06/26 09:33:19;;;;;;;11.23;4.18;;;;;;;;;;5099063;28;20057;-77
2021/06/26 09:35:47;;;;;;;11.40;3.67;;;;;;;;;;5108013;28;20108;-76
2021/06/26 09:38:13;;;;;;;9.52;3.83;;;;;;;;;;5110965;28;20039;-77
2021/06/26 09:40:40;;;;;;;5.97;3.60;;;;;;;;;;5110181;28;20545;-78
2021/06/26 09:43:07;;;;;;;8.15;4.00;;;;;;;;;;5110622;28;20102;-78
2021/06/26 09:45:33;;;;;;;10.02;3.90;;;;;;;;;;5111180;28;20024;-78
2021/06/26 09:48:04;;;;;;;5.93;4.00;;;;;;;;;;5105369;28;20157;-79
2021/06/26 09:50:30;;;;;;;8.30;3.50;;;;;;;;;;5111579;28;20103;-79
2021/06/26 09:53:00;;;;;;;6.30;3.67;;;;;;;;;;5109957;28;20472;-78
2021/06/26 09:55:30;;;;;;;9.88;3.97;;;;;;;;;;5108356;28;20024;-77
2021/06/26 09:57:58;;;;;;;8.38;3.60;;;;;;;;;;5110164;28;20075;-78
2021/06/26 10:00:25;;;;;;;6.35;3.90;;;;;;;;;;5088402;28;20378;-80
2021/06/26 10:02:50;;;;;;;;;;;;;;;;;;5109551;28;20047;-77
2021/06/26 10:05:17;;;;;;;12.52;4.40;;;;;;;;;;5111003;28;19931;-78
2021/06/26 10:07:44;;;;;;;7.32;3.70;;;;;;;;;;5110796;28;20023;-78
2021/06/26 10:10:14;;;;;;;6.25;3.38;;;;;;;;;;5109796;28;20565;-76
2021/06/26 10:12:40;;;;;;;9.25;4.07;;;;;;;;;;5096875;28;20050;-77
2021/06/26 10:15:07;;;;;;;6.55;4.03;;;;;;;;;;5092423;28;20378;-77
2021/06/26 10:17:34;;;;;;;7.00;3.90;;;;;;;;;;5093321;28;20027;-76
2021/06/26 10:20:00;;;;;;;;;;;;;;;;;;5111180;28;20067;-77
2021/06/26 10:22:26;;;;;;;10.02;3.60;;;;;;;;;;5110682;28;19951;-77
2021/06/26 10:24:52;;;;;;;9.20;3.45;;;;;;;;;;5110702;28;20393;-78
2021/06/26 10:27:22;;;;;;;14.40;3.63;;;;;;;;;;5108105;28;20024;-78
2021/06/26 10:29:49;;;;;;;6.63;3.72;;;;;;;;;;5096361;28;20047;-77
2021/06/26 10:32:16;;;;;;;6.68;3.38;;;;;;;;;;5109992;28;20023;-78
2021/06/26 10:34:52;;;;;;;7.13;3.45;;;;;;;;;;5105041;28;20027;-77
2021/06/26 10:37:19;;;;;;;10.43;3.55;;;;;;;;;;5110349;27;20023;-78
2021/06/26 10:39:45;;;;;;;;;;;;;;;;;;5099418;28;20036;-78
2021/06/26 10:42:12;;;;;;;9.10;4.93;;;;;;;;;;5110047;28;19923;-79
2021/06/26 10:44:39;;;;;;;11.05;3.90;;;;;;;;;;5108860;28;20031;-77
2021/06/26 10:47:05;;;;;;;6.55;3.88;;;;;;;;;;5110284;28;20031;-76
2021/06/26 10:49:31;;;;;;;12.53;3.90;;;;;;;;;;5110497;28;20024;-80
2021/06/26 10:52:11;;;;;;;11.55;3.58;;;;;;;;;;5109663;28;20043;-78
2021/06/26 10:54:37;;;;;;;9.07;3.88;;;;;;;;;;5109368;28;20054;-78
2021/06/26 10:57:07;;;;;;;10.52;4.00;;;;;;;;;;5109163;28;20030;-80
2021/06/26 10:59:33;;;;;;;11.02;3.85;;;;;;;;;;5110058;28;20496;-80
2021/06/26 11:02:03;;;;;;;7.03;3.22;;;;;;;;;;5091498;28;20050;-78
2021/06/26 11:04:29;;;;;;;7.03;3.78;;;;;;;;;;5110493;28;20020;-77
2021/06/26 11:07:09;;;;;;;8.87;4.03;;;;;;;;;;5091888;28;20492;-78
2021/06/26 11:09:41;;;;;;;6.53;3.42;;;;;;;;;;5092337;28;20386;-78
2021/06/26 11:12:12;;;;;;;9.00;3.22;;;;;;;;;;5091177;28;20036;-79
2021/06/26 11:14:47;;;;;;;5.43;2.90;;;;;;;;;;5110112;28;20519;-78
2021/06/26 11:17:13;;;;;;;12.68;3.70;;;;;;;;;;5090741;28;20028;-78
2021/06/26 11:19:39;;;;;;;7.00;3.40;;;;;;;;;;5110882;28;20426;-80
2021/06/26 11:22:05;;;;;;;6.93;3.77;;;;;;;;;;5109479;28;20054;-79
2021/06/26 11:24:34;;;;;;;40.50;9.07;;;;;;;;;;5111185;28;20046;-80
2021/06/26 11:27:00;;;;;;;7.13;3.45;;;;;;;;;;5114018;27;20044;-81
2021/06/26 11:29:29;;;;;;;7.60;3.33;;;;;;;;;;5113753;28;20036;-79
2021/06/26 11:31:55;;;;;;;11.57;3.70;;;;;;;;;;5113292;28;20062;-79
2021/06/26 11:34:21;;;;;;;6.25;3.30;;;;;;;;;;5114143;28;20050;-78
2021/06/26 11:36:57;;;;;;;9.83;5.00;;;;;;;;;;5113897;27;20128;-77
2021/06/26 11:39:23;;;;;;;6.63;3.43;;;;;;;;;;5094360;28;20293;-78
2021/06/26 11:41:49;;;;;;;11.07;3.25;;;;;;;;;;5113480;28;20498;-80
2021/06/26 11:44:15;;;;;;;6.77;3.20;;;;;;;;;;5113738;28;20040;-80
2021/06/26 11:46:41;;;;;;;8.35;3.40;;;;;;;;;;5114480;28;20428;-81
2021/06/26 11:49:07;;;;;;;11.73;3.23;;;;;;;;;;5112741;27;20020;-80
2021/06/26 11:51:33;;;;;;;8.32;3.33;;;;;;;;;;5111883;28;20443;-81
2021/06/26 11:53:59;;;;;;;5.70;2.90;;;;;;;;;;5095283;28;20047;-82
2021/06/26 11:56:25;;;;;;;6.00;3.10;;;;;;;;;;5113810;28;20024;-79
2021/06/26 11:58:52;;;;;;;7.50;3.00;;;;;;;;;;5112856;28;20106;-80
2021/06/26 12:01:36;;;;;;;7.22;3.38;;;;;;;;;;5113144;28;20407;-79
2021/06/26 12:04:03;;;;;;;7.95;2.90;;;;;;;;;;5113098;28;20031;-81
2021/06/26 12:06:35;;;;;;;11.23;3.00;;;;;;;;;;5113001;28;20492;-80
2021/06/26 12:09:01;;;;;;;7.65;2.70;;;;;;;;;;5113690;28;20031;-81
2021/06/26 12:11:28;;;;;;;5.90;3.75;;;;;;;;;;5112295;28;20217;-81
2021/06/26 12:13:55;;;;;;;5.82;2.90;;;;;;;;;;5113061;28;20054;-79
2021/06/26 12:16:23;;;;;;;10.02;3.10;;;;;;;;;;5095340;28;20019;-80
2021/06/26 12:18:50;;;;;;;4.55;2.70;;;;;;;;;;5113138;28;20063;-80
2021/06/26 12:21:16;;;;;;;5.90;2.65;;;;;;;;;;5112996;28;20080;-81
2021/06/26 12:23:49;;;;;;;7.25;3.00;;;;;;;;;;5113305;28;20101;-79
2021/06/26 12:26:16;;;;;;;5.97;2.80;;;;;;;;;;5113523;28;20031;-80
2021/06/26 12:28:41;;;;;;;;;;;;;;;;;;5114014;28;20035;-80
2021/06/26 12:31:07;;;;;;;;;;;;;;;;;;5112783;28;19907;-79
2021/06/26 12:33:34;;;;;;;7.75;2.90;;;;;;;;;;5113057;28;19904;-80
2021/06/26 12:36:10;;;;;;;4.28;2.60;;;;;;;;;;5094139;28;20036;-78
2021/06/26 12:38:37;;;;;;;6.82;3.10;;;;;;;;;;5113453;28;20020;-80
2021/06/26 12:41:03;;;;;;;9.20;2.70;;;;;;;;;;5113404;28;20362;-80
2021/06/26 12:43:29;;;;;;;;;;;;;;;;;;5094199;28;20022;-80
2021/06/26 12:45:55;;;;;;;10.68;2.80;;;;;;;;;;5112779;28;19923;-80
2021/06/26 12:48:29;;;;;;;6.32;2.45;;;;;;;;;;5113159;28;20081;-80
2021/06/26 12:51:00;;;;;;;3.83;2.60;;;;;;;;;;5095056;28;20719;-81
2021/06/26 12:53:32;;;;;;;5.90;2.90;;;;;;;;;;5111805;28;20044;-80
2021/06/26 12:56:02;;;;;;;5.80;2.60;;;;;;;;;;5112635;28;20092;-81
2021/06/26 12:58:28;;;;;;;5.05;3.00;;;;;;;;;;5113195;28;20027;-80
2021/06/26 13:00:55;;;;;;;6.53;2.80;;;;;;;;;;5103927;28;20085;-80
2021/06/26 13:03:21;;;;;;;4.93;2.70;;;;;;;;;;5110213;28;20538;-81
2021/06/26 13:05:48;;;;;;;12.43;7.78;;;;;;;;;;5092901;28;20028;-79
2021/06/26 13:08:16;;;;;;;8.32;3.20;;;;;;;;;;5110225;28;20020;-80
2021/06/26 13:10:49;;;;;;;5.75;2.70;;;;;;;;;;5111201;28;20015;-80
2021/06/26 13:13:15;;;;;;;5.45;2.60;;;;;;;;;;5101324;28;20076;-81
2021/06/26 13:15:41;;;;;;;11.82;2.80;;;;;;;;;;5091935;28;20019;-81
2021/06/26 13:18:07;;;;;;;10.20;3.15;;;;;;;;;;5114047;27;20764;-80
2021/06/26 13:20:33;;;;;;;3.65;2.30;;;;;;;;;;5100912;28;20028;-80
2021/06/26 13:22:59;;;;;;;4.68;2.38;;;;;;;;;;5113076;27;20101;-80
2021/06/26 13:25:25;;;;;;;;;;;;;;;;;;5110512;28;20528;-80
2021/06/26 13:27:51;;;;;;;7.93;2.85;;;;;;;;;;5110522;28;19908;-79
2021/06/26 13:30:17;;;;;;;;;;;;;;;;;;5109980;28;20027;-80
2021/06/26 13:32:44;;;;;;;6.97;2.70;;;;;;;;;;5110303;28;19907;-80
2021/06/26 13:35:11;;;;;;;11.38;2.75;;;;;;;;;;5091152;28;20023;-80
2021/06/26 13:37:37;;;;;;;9.20;2.80;;;;;;;;;;5115894;27;20832;-78
2021/06/26 13:40:03;;;;;;;6.30;2.70;;;;;;;;;;5110963;27;20153;-79
2021/06/26 13:42:29;;;;;;;7.90;3.10;;;;;;;;;;5111595;28;20055;-78
2021/06/26 13:44:55;;;;;;;4.43;3.00;;;;;;;;;;5112024;28;20086;-79
2021/06/26 13:47:21;;;;;;;9.07;2.95;;;;;;;;;;5092354;28;20073;-80
2021/06/26 13:49:47;;;;;;;8.35;3.08;;;;;;;;;;5107488;28;20036;-79
2021/06/26 13:52:13;;;;;;;4.18;2.60;;;;;;;;;;5109668;28;20024;-79
2021/06/26 13:54:39;;;;;;;7.97;2.80;;;;;;;;;;5109828;28;20044;-78
2021/06/26 13:57:05;;;;;;;16.58;12.82;;;;;;;;;;5103875;28;20078;-79
2021/06/26 13:59:31;;;;;;;8.88;2.90;;;;;;;;;;5107764;28;20051;-80
2021/06/26 14:01:57;;;;;;;5.10;2.50;;;;;;;;;;5107622;28;20031;-79
2021/06/26 14:04:23;;;;;;;15.57;3.83;;;;;;;;;;5109673;28;20284;-80
2021/06/26 14:06:49;;;;;;;7.03;2.80;;;;;;;;;;5101781;28;20023;-80
2021/06/26 14:09:15;;;;;;;7.77;2.70;;;;;;;;;;5109728;28;20281;-80
2021/06/26 14:11:41;;;;;;;4.13;2.60;;;;;;;;;;5108896;28;20388;-80
2021/06/26 14:14:07;;;;;;;6.55;2.70;;;;;;;;;;5109925;28;20291;-79
2021/06/26 14:16:33;;;;;;;7.72;2.67;;;;;;;;;;5109432;28;20526;-79
2021/06/26 14:18:59;;;;;;;5.05;2.70;;;;;;;;;;5109058;28;20131;-80
2021/06/26 14:21:25;;;;;;;5.55;2.58;;;;;;;;;;5107368;28;20651;-80
2021/06/26 14:23:51;;;;;;;6.78;2.90;;;;;;;;;;5103007;28;20020;-79
2021/06/26 14:26:19;;;;;;;8.95;3.00;;;;;;;;;;5110045;28;20039;-80
2021/06/26 14:28:45;;;;;;;7.78;2.90;;;;;;;;;;5107494;28;20039;-79
2021/06/26 14:31:11;;;;;;;6.18;2.80;;;;;;;;;;5108230;28;20092;-80
2021/06/26 14:33:37;;;;;;;4.85;3.30;;;;;;;;;;5107469;28;20031;-79
2021/06/26 14:36:03;;;;;;;6.95;2.75;;;;;;;;;;5088668;28;20495;-80
2021/06/26 14:38:31;;;;;;;5.03;2.88;;;;;;;;;;5105934;28;20038;-78
2021/06/26 14:40:57;;;;;;;8.65;2.85;;;;;;;;;;5108977;28;20131;-80